EKAH/AAR METAR and TAF weather

Enter ICAO airport designator
Station Type Date Time Source
EKAH METAR 2019/04/25 21:50 UTC NOAA

EKAH 252150Z AUTO 10003KT 2400NDV BR NCD 11/10 Q1013


Station Type Date Time Source
EKAH Decoded METAR 2019/04/25 21:50 UTC NOAA

Tirstrup, Denmark (EKAH) 56-18N 010-37E 25M
Apr 25, 2019 - 05:50 PM EDT / 2019.04.25 2150 UTC
Wind: from the E (100 degrees) at 3 MPH (3 KT):0
Weather: mist
Temperature: 51 F (11 C)
Dew Point: 50 F (10 C)
Relative Humidity: 93%
Pressure (altimeter): 29.91 in. Hg (1013 hPa)
ob: EKAH 252150Z AUTO 10003KT 2400NDV BR NCD 11/10 Q1013
cycle: 22

Station Type Date Time Source
EKAH TAF 2019/04/25 21:54 UTC NOAA

TAF
AMD TAF
AMD EKAH 252152Z 2521/2618 12008KT 9999 FEW030
TEMPO 2521/2606 2500 BR
BECMG 2612/2615 30010KT
TEMPO 2614/2618 4000 SHRA BKN008 SCT025CB

Example: see airport list